VILK/LKO METAR and TAF weather

Enter ICAO airport designator
Station Type Date Time Source
VILK METAR 2018/12/10 08:00 UTC NOAA

VILK 100800Z 08005KT 2500 HZ NSC 23/06 Q1014 NOSIG


Station Type Date Time Source
VILK Decoded METAR 2018/12/10 08:00 UTC NOAA

Lucknow / Amausi, India (VILK) 26-45N 080-53E 128M
Dec 10, 2018 - 03:00 AM EST / 2018.12.10 0800 UTC
Wind: from the E (080 degrees) at 6 MPH (5 KT):0
Visibility: 1 mile(s):0
Weather: haze
Temperature: 73 F (23 C)
Dew Point: 42 F (6 C)
Relative Humidity: 33%
Pressure (altimeter): 29.94 in. Hg (1014 hPa)
ob: VILK 100800Z 08005KT 2500 HZ NSC 23/06 Q1014 NOSIG
cycle: 8

Station Type Date Time Source
VILK TAF 2018/12/10 06:33 UTC NOAA

TAF VILK 100500Z 1006/1112 VRB02KT 1500 BR HZ NSC
BECMG 1008/1010 13004KT 3000 HZ
BECMG 1012/1014 2000 HZ
BECMG 1020/1022 00000KT 0800 BR MIFG
BECMG 1101/1102 0600 FG NSC
BECMG 1108/1110 VRB02KT 3000 HZ


Example: see airport list